Ana Sayfa
METAR-TAF:

METAR-TAF

Havaalanları :

Cluj-Napoca, Romanya

Enlem: 46-47N, Boylam: 023-34E, yükseklik: 315 m

Güncel hava durumu gözlemi

Rapor saat 15:30 UTC de 41 dakika önce yapıldı.
Rüzgar kuzeydoğudan 4 kt, kuzey ve doğu arasında değişken
Sıcaklık 26°C
Nem 58%
Basınç 1019 hPa
Görüş mesafesi 10 km veya daha fazla
1500 m altında bulut yok ve kümülonimbus yok

METAR: LRCL 241530Z 04004KT 360V080 CAVOK 26/17 Q1019

Saat: 19:11 (16:11 UTC)

Tahmin

Rapor saat 14:00 UTC de 2 saat ve 11 dakika önce yapıldı.
Ayın 24'si saat 15 UTC'den ayın 24'si saat 24 UTC'ye kadar geçerli Tahmin
Rüzgar değişken yönden 4 kt
Görüş mesafesi 10 km veya daha fazla
5000 ft yükseklikte az bulutlu, Kümülonimbus.
Dönüşüyor
ayın 24'si saat 15 UTC'den ayın 24'si saat 17 UTC'ye kadar

TAF: LRCL 241400Z 2415/2424 VRB04KT 9999 FEW050CB BECMG 2415/2417 NSC

4.000'den fazla havaalanı için hava durumu gözlemleri ve tahminleri (METAR ve TAF raporları).

Kullanılabilir istasyonlar harita üzerinde sarı ve kırmızı noktalarla gösterilir.

İstasyonun adını görmek için fareyi noktanın üzerinde gezdirin.

Sonrasında hava gözlem ve tahminlerini görmek için tıklayın.

Haritayı değiştirmek için: yaklaştırmak için siyah artı işaretli yeşil düğmeye ve uzaklaştırmak için de eksi işaretli düğmeye hızla tıklayın; bitişik haritalar için yeşil okları kullanın.


METAR-TAF: